Airport View

Enter AWOS ICAO identifier for current METAR.

ex. KFNL

KRUT 112156Z AUTO VRB03KT 10SM CLR M02/M10 A3017 RMK AO2 SLP221 T10221100 FZRANO $

11 Dec 2019 22:10

Frequency: 118.375

Phone: 802-747-3044

Other Area AWOS: KVSF - K6B0 - KLEB - KGFL

TAF KRUT 111737Z 1118/1218 24006KT P6SM FEW250 FM112300 23007KT P6SM BKN030 FM120400 27013G21KT P6SM SCT020